Terminal Aerodrome Forecast
Issued by NWS Charleston, WV

Current Version | Previous Version | Graphics & Text | Print | Product List | Glossary On
Versions: 1 2 3 4 5 6 7 8 9 10 11 12 13 14 15 16 17 18 19 20 21 22 23 24 25 26 27 28
000
FTUS41 KRLX 231500 AAA
TAFCRW
TAF AMD
KCRW 231515Z 2315/2412 14005KT P6SM BKN045
     FM240400 15008KT 6SM -SHRA BR OVC035
     FM240800 16008KT 3SM -SHRA BR OVC025=

USA.gov is the U.S. government's official web portal to all federal, state and local government web resources and services.